createdAt,value
2019-01-24T00:00:29.514Z,62.05
2019-01-24T00:01:33.941Z,60.65
2019-01-24T00:02:38.244Z,60.03
2019-01-24T00:03:42.622Z,58.80
2019-01-24T00:04:46.926Z,57.08
2019-01-24T00:05:51.280Z,60.00
2019-01-24T00:06:55.561Z,58.13
2019-01-24T00:07:59.994Z,58.83
2019-01-24T00:09:07.173Z,56.55
2019-01-24T00:10:11.690Z,55.20
2019-01-24T00:11:15.963Z,61.08
2019-01-24T00:12:20.242Z,57.27
2019-01-24T00:13:24.515Z,54.83
2019-01-24T00:14:28.833Z,56.63
2019-01-24T00:15:33.246Z,53.68
2019-01-24T00:16:37.529Z,57.23
2019-01-24T00:17:41.874Z,57.53
2019-01-24T00:18:46.140Z,56.48
2019-01-24T00:19:50.429Z,55.80
2019-01-24T00:20:54.702Z,53.23
2019-01-24T00:21:58.982Z,56.55
2019-01-24T00:23:03.249Z,51.68
2019-01-24T00:24:07.596Z,53.78
2019-01-24T00:25:12.026Z,54.85
2019-01-24T00:26:16.298Z,55.80
2019-01-24T00:27:20.592Z,53.15
2019-01-24T00:28:24.857Z,53.00
2019-01-24T00:29:29.126Z,54.53
2019-01-24T00:30:33.544Z,53.15
2019-01-24T00:31:37.898Z,53.08
2019-01-24T00:32:42.422Z,53.30
2019-01-24T00:33:46.694Z,54.25
2019-01-24T00:34:51.046Z,54.08
2019-01-24T00:35:55.338Z,52.10
2019-01-24T00:36:59.613Z,51.83
2019-01-24T00:38:03.959Z,51.90
2019-01-24T00:39:08.825Z,49.55
2019-01-24T00:40:15.414Z,51.37
2019-01-24T00:41:19.673Z,48.83
2019-01-24T00:42:23.937Z,50.83
2019-01-24T00:43:28.204Z,49.53
2019-01-24T00:44:32.470Z,50.60
2019-01-24T00:45:36.762Z,48.28
2019-01-24T00:46:41.039Z,49.20
2019-01-24T00:47:45.300Z,48.60
2019-01-24T00:48:49.576Z,47.48
2019-01-24T00:49:53.853Z,48.68
2019-01-24T00:50:58.202Z,45.20
2019-01-24T00:52:02.481Z,47.48
2019-01-24T00:53:06.758Z,44.65
2019-01-24T00:54:11.030Z,46.25
2019-01-24T00:55:15.486Z,45.78
2019-01-24T00:56:19.753Z,45.28
2019-01-24T00:57:24.018Z,45.28
2019-01-24T00:58:28.302Z,46.33
2019-01-24T00:59:32.584Z,46.05
2019-01-24T01:00:37.017Z,42.25
2019-01-24T01:01:41.282Z,43.38
2019-01-24T01:02:45.918Z,42.65
2019-01-24T01:03:50.190Z,43.33
2019-01-24T01:04:54.465Z,39.33
2019-01-24T01:05:58.750Z,40.80
2019-01-24T01:07:05.673Z,42.60
2019-01-24T01:08:10.009Z,39.45
2019-01-24T01:09:14.379Z,39.85
2019-01-24T01:10:18.807Z,41.30
2019-01-24T01:11:23.087Z,40.40
2019-01-24T01:12:27.354Z,40.10
2019-01-24T01:13:31.655Z,41.33
2019-01-24T01:14:35.922Z,38.55
2019-01-24T01:15:40.220Z,40.20
2019-01-24T01:16:44.501Z,40.35
2019-01-24T01:17:49.074Z,39.38
2019-01-24T01:18:53.342Z,38.55
2019-01-24T01:19:57.610Z,39.05
2019-01-24T01:21:01.901Z,37.53
2019-01-24T01:22:06.318Z,39.95
2019-01-24T01:23:10.726Z,40.28
2019-01-24T01:24:14.999Z,39.85
2019-01-24T01:25:19.427Z,38.28
2019-01-24T01:26:23.707Z,39.50
2019-01-24T01:27:27.966Z,38.30
2019-01-24T01:28:32.238Z,38.65
2019-01-24T01:29:36.509Z,36.13
2019-01-24T01:30:40.791Z,37.28
2019-01-24T01:31:45.130Z,37.45
2019-01-24T01:32:49.778Z,39.15
2019-01-24T01:33:54.106Z,37.88
2019-01-24T01:34:58.373Z,37.95
2019-01-24T01:36:02.717Z,36.90
2019-01-24T01:37:06.993Z,39.35
2019-01-24T01:38:11.253Z,36.60
2019-01-24T01:39:15.543Z,38.88
2019-01-24T01:40:20.337Z,37.70
2019-01-24T01:41:24.642Z,38.05
2019-01-24T01:42:28.975Z,38.40
2019-01-24T01:43:33.393Z,39.50
2019-01-24T01:44:37.659Z,36.95
2019-01-24T01:45:41.949Z,40.03
2019-01-24T01:46:46.259Z,37.23
2019-01-24T01:47:50.687Z,37.75
2019-01-24T01:48:54.957Z,38.05
2019-01-24T01:49:59.210Z,36.38
2019-01-24T01:51:03.576Z,37.33
2019-01-24T01:52:07.837Z,38.53
2019-01-24T01:53:12.105Z,37.67
2019-01-24T01:54:16.374Z,38.20
2019-01-24T01:55:20.795Z,38.70
2019-01-24T01:56:25.091Z,37.28
2019-01-24T01:57:29.441Z,36.88
2019-01-24T01:58:33.701Z,36.53
2019-01-24T01:59:37.982Z,37.65
2019-01-24T02:00:42.749Z,38.10
2019-01-24T02:01:47.119Z,39.33
2019-01-24T02:02:51.622Z,37.83
2019-01-24T02:03:55.892Z,37.38
2019-01-24T02:05:00.234Z,37.00
2019-01-24T02:06:04.619Z,37.80
2019-01-24T02:07:08.870Z,38.35
2019-01-24T02:08:13.132Z,37.67
2019-01-24T02:09:17.389Z,35.78
2019-01-24T02:10:23.048Z,36.55
2019-01-24T02:11:27.658Z,36.15
2019-01-24T02:12:31.978Z,34.90
2019-01-24T02:13:36.229Z,37.40
2019-01-24T02:14:40.477Z,36.50
2019-01-24T02:15:44.802Z,39.13
2019-01-24T02:16:49.061Z,39.42
2019-01-24T02:17:53.377Z,35.10
2019-01-24T02:18:57.625Z,38.25
2019-01-24T02:20:01.871Z,38.00
2019-01-24T02:21:06.206Z,38.42
2019-01-24T02:22:10.774Z,36.42
2019-01-24T02:23:15.031Z,39.38
2019-01-24T02:24:19.354Z,37.35
2019-01-24T02:25:23.837Z,37.67
2019-01-24T02:26:28.115Z,37.70
2019-01-24T02:27:32.375Z,38.83
2019-01-24T02:28:36.617Z,38.02
2019-01-24T02:29:40.881Z,35.40
2019-01-24T02:30:45.197Z,37.78
2019-01-24T02:31:49.785Z,35.85
2019-01-24T02:32:54.197Z,35.60
2019-01-24T02:33:58.446Z,33.88
2019-01-24T02:35:02.738Z,35.00
2019-01-24T02:36:07.055Z,34.27
2019-01-24T02:37:11.319Z,35.30
2019-01-24T02:38:15.582Z,35.90
2019-01-24T02:39:19.841Z,34.15
2019-01-24T02:40:24.174Z,35.33
2019-01-24T02:41:28.433Z,38.02
2019-01-24T02:42:33.149Z,35.60
2019-01-24T02:43:37.429Z,35.83
2019-01-24T02:44:42.440Z,36.53
2019-01-24T02:45:46.693Z,34.35
2019-01-24T02:46:51.002Z,35.43
2019-01-24T02:47:55.245Z,37.70
2019-01-24T02:48:59.509Z,36.68
2019-01-24T02:50:04.955Z,36.98
2019-01-24T02:51:09.221Z,36.15
2019-01-24T02:52:13.482Z,34.18
2019-01-24T02:53:17.751Z,35.05
2019-01-24T02:54:21.998Z,34.05
2019-01-24T02:55:26.253Z,34.95
2019-01-24T02:56:30.512Z,32.88
2019-01-24T02:57:34.789Z,34.43
2019-01-24T02:58:39.111Z,34.40
2019-01-24T02:59:43.369Z,36.25
2019-01-24T03:00:47.702Z,33.78
2019-01-24T03:01:51.995Z,34.30
2019-01-24T03:02:56.254Z,35.00
2019-01-24T03:04:00.510Z,32.30
2019-01-24T03:05:06.931Z,32.08
2019-01-24T03:06:11.326Z,32.15
2019-01-24T03:07:15.607Z,32.98
2019-01-24T03:08:19.858Z,34.15
2019-01-24T03:09:24.130Z,32.50
2019-01-24T03:10:28.453Z,34.18
2019-01-24T03:11:32.800Z,32.70
2019-01-24T03:12:37.066Z,32.05
2019-01-24T03:13:41.369Z,32.35
2019-01-24T03:14:45.631Z,31.45
2019-01-24T03:15:50.066Z,31.37
2019-01-24T03:16:54.344Z,31.17
2019-01-24T03:17:58.602Z,31.27
2019-01-24T03:19:02.863Z,31.10
2019-01-24T03:20:07.734Z,30.30
2019-01-24T03:21:11.991Z,30.23
2019-01-24T03:22:16.254Z,31.68
2019-01-24T03:23:20.508Z,30.45
2019-01-24T03:24:24.758Z,30.77
2019-01-24T03:25:29.019Z,32.05
2019-01-24T03:26:33.965Z,31.00
2019-01-24T03:27:39.295Z,32.50
2019-01-24T03:28:43.561Z,32.38
2019-01-24T03:29:47.815Z,30.45
2019-01-24T03:30:52.072Z,29.57
2019-01-24T03:31:56.335Z,31.52
2019-01-24T03:33:00.625Z,30.12
2019-01-24T03:34:05.232Z,31.33
2019-01-24T03:35:12.432Z,32.08
2019-01-24T03:36:16.678Z,30.52
2019-01-24T03:37:20.950Z,30.92
2019-01-24T03:38:25.198Z,29.75
2019-01-24T03:39:29.471Z,30.23
2019-01-24T03:40:33.744Z,29.42
2019-01-24T03:41:37.985Z,29.82
2019-01-24T03:42:42.414Z,30.50
2019-01-24T03:43:46.694Z,29.82
2019-01-24T03:44:50.938Z,29.70
2019-01-24T03:45:55.194Z,31.57
2019-01-24T03:46:59.451Z,30.75
2019-01-24T03:48:03.794Z,28.95
2019-01-24T03:49:08.053Z,29.90
2019-01-24T03:50:14.838Z,30.05
2019-01-24T03:51:19.162Z,29.12
2019-01-24T03:52:23.432Z,30.10
2019-01-24T03:53:27.787Z,29.72
2019-01-24T03:54:32.115Z,28.75
2019-01-24T03:55:36.362Z,31.50
2019-01-24T03:56:40.866Z,30.00
2019-01-24T03:57:45.211Z,30.88
2019-01-24T03:58:49.475Z,31.05
2019-01-24T03:59:53.807Z,31.00
2019-01-24T04:00:58.056Z,28.92
2019-01-24T04:02:02.312Z,30.37
2019-01-24T04:03:06.583Z,30.30
2019-01-24T04:04:10.838Z,32.75
2019-01-24T04:05:15.346Z,29.92
2019-01-24T04:06:19.593Z,30.52
2019-01-24T04:07:23.871Z,30.77
2019-01-24T04:08:28.135Z,30.90
2019-01-24T04:09:32.399Z,31.87
2019-01-24T04:10:36.654Z,29.35
2019-01-24T04:11:40.955Z,29.72
2019-01-24T04:12:45.468Z,28.20
2019-01-24T04:13:49.734Z,29.48
2019-01-24T04:14:54.146Z,29.37
2019-01-24T04:15:58.407Z,28.77
2019-01-24T04:17:02.674Z,28.27
2019-01-24T04:18:07.203Z,29.32
2019-01-24T04:19:11.463Z,28.57
2019-01-24T04:20:16.042Z,27.52
2019-01-24T04:21:20.319Z,29.82
2019-01-24T04:22:24.628Z,27.87
2019-01-24T04:23:28.890Z,29.02
2019-01-24T04:24:33.158Z,28.65
2019-01-24T04:25:37.421Z,28.85
2019-01-24T04:26:41.667Z,29.55
2019-01-24T04:27:46.000Z,28.92
2019-01-24T04:28:50.255Z,29.20
2019-01-24T04:29:54.518Z,28.00
2019-01-24T04:30:58.775Z,27.58
2019-01-24T04:32:03.031Z,27.00
2019-01-24T04:33:07.316Z,28.15
2019-01-24T04:34:11.575Z,29.60
2019-01-24T04:35:20.110Z,29.00
2019-01-24T04:36:21.990Z,28.65
2019-01-24T04:37:26.236Z,27.40
2019-01-24T04:38:30.511Z,26.07
2019-01-24T04:39:34.778Z,27.52
2019-01-24T04:40:39.054Z,30.12
2019-01-24T04:41:43.342Z,26.93
2019-01-24T04:42:47.741Z,28.75
2019-01-24T04:43:52.015Z,29.23
2019-01-24T04:44:56.290Z,27.25
2019-01-24T04:46:00.614Z,27.95
2019-01-24T04:47:04.946Z,28.60
2019-01-24T04:48:09.196Z,29.00
2019-01-24T04:49:13.461Z,28.75
2019-01-24T04:50:18.647Z,27.48
2019-01-24T04:51:22.902Z,28.27
2019-01-24T04:52:27.158Z,28.83
2019-01-24T04:53:31.423Z,27.60
2019-01-24T04:54:35.690Z,27.77
2019-01-24T04:55:39.947Z,28.10
2019-01-24T04:56:44.272Z,29.07
2019-01-24T04:57:48.952Z,27.62
2019-01-24T04:58:53.214Z,28.00
2019-01-24T04:59:57.486Z,28.25
2019-01-24T05:01:01.742Z,27.40
2019-01-24T05:02:06.083Z,28.10
2019-01-24T05:03:10.333Z,27.85
2019-01-24T05:04:14.634Z,26.23
2019-01-24T05:05:18.989Z,28.32
2019-01-24T05:06:23.335Z,26.97
2019-01-24T05:07:27.673Z,26.15
2019-01-24T05:08:32.016Z,27.45
2019-01-24T05:09:36.345Z,28.52
2019-01-24T05:10:40.654Z,28.98
2019-01-24T05:11:44.949Z,27.95
2019-01-24T05:12:49.278Z,28.27
2019-01-24T05:13:53.564Z,27.77
2019-01-24T05:14:57.812Z,28.92
2019-01-24T05:16:02.090Z,29.65
2019-01-24T05:17:06.351Z,27.75
2019-01-24T05:18:10.674Z,28.23
2019-01-24T05:19:14.946Z,29.00
2019-01-24T05:20:19.198Z,28.75
2019-01-24T05:21:23.456Z,28.60
2019-01-24T05:22:27.710Z,27.55
2019-01-24T05:23:31.982Z,29.23
2019-01-24T05:24:36.239Z,30.12
2019-01-24T05:25:40.494Z,29.02
2019-01-24T05:26:44.902Z,28.55
2019-01-24T05:27:49.506Z,28.90
2019-01-24T05:28:56.900Z,29.87
2019-01-24T05:30:01.162Z,29.15
2019-01-24T05:31:05.588Z,28.35
2019-01-24T05:32:09.847Z,28.90
2019-01-24T05:33:14.141Z,27.60
2019-01-24T05:34:18.526Z,28.40
2019-01-24T05:35:22.872Z,27.70
2019-01-24T05:36:27.131Z,29.30
2019-01-24T05:37:31.414Z,27.55
2019-01-24T05:38:35.672Z,28.65
2019-01-24T05:39:39.967Z,28.30
2019-01-24T05:40:44.213Z,27.75
2019-01-24T05:41:48.482Z,26.33
2019-01-24T05:42:52.852Z,27.87
2019-01-24T05:43:57.106Z,28.60
2019-01-24T05:45:01.400Z,27.62
2019-01-24T05:46:05.666Z,28.62
2019-01-24T05:47:09.993Z,28.77
2019-01-24T05:48:14.325Z,27.85
2019-01-24T05:49:18.614Z,27.85
2019-01-24T05:50:24.460Z,29.85
2019-01-24T05:51:28.894Z,28.65
2019-01-24T05:52:33.169Z,26.37
2019-01-24T05:53:37.417Z,29.23
2019-01-24T05:54:41.695Z,28.55
2019-01-24T05:55:45.945Z,27.85
2019-01-24T05:56:50.194Z,27.62
2019-01-24T05:57:54.458Z,28.52
2019-01-24T05:58:58.715Z,27.50
2019-01-24T06:00:03.130Z,28.05
2019-01-24T06:01:08.853Z,27.48
2019-01-24T06:02:13.191Z,29.12
2019-01-24T06:03:17.437Z,29.67
2019-01-24T06:04:21.779Z,29.40
2019-01-24T06:05:26.054Z,29.15
2019-01-24T06:06:30.366Z,30.37
2019-01-24T06:07:34.621Z,30.52
2019-01-24T06:08:38.977Z,28.20
2019-01-24T06:09:43.244Z,31.30
2019-01-24T06:10:47.517Z,30.52
2019-01-24T06:11:51.786Z,30.43
2019-01-24T06:12:56.062Z,29.95
2019-01-24T06:14:00.369Z,28.20
2019-01-24T06:15:05.494Z,29.48
2019-01-24T06:16:09.745Z,31.50
2019-01-24T06:17:14.070Z,30.23
2019-01-24T06:18:18.336Z,30.02
2019-01-24T06:19:22.590Z,30.85
2019-01-24T06:20:26.852Z,30.80
2019-01-24T06:21:31.195Z,30.65
2019-01-24T06:22:35.518Z,27.82
2019-01-24T06:23:39.794Z,30.62
2019-01-24T06:24:44.037Z,27.95
2019-01-24T06:25:48.370Z,28.77
2019-01-24T06:26:52.646Z,28.85
2019-01-24T06:27:56.909Z,29.00
2019-01-24T06:29:02.980Z,29.10
2019-01-24T06:30:14.670Z,28.07
2019-01-24T06:31:19.390Z,28.50
2019-01-24T06:32:35.548Z,30.37
2019-01-24T06:33:39.930Z,29.63
2019-01-24T06:34:44.188Z,28.47
2019-01-24T06:35:49.070Z,28.52
2019-01-24T06:36:53.731Z,26.95
2019-01-24T06:37:58.097Z,28.57
2019-01-24T06:39:02.573Z,27.90
2019-01-24T06:40:08.012Z,28.20
2019-01-24T06:41:12.258Z,27.73
2019-01-24T06:42:16.550Z,29.20
2019-01-24T06:43:20.950Z,29.23
2019-01-24T06:44:25.335Z,28.55
2019-01-24T06:45:29.597Z,27.70
2019-01-24T06:46:33.858Z,29.07
2019-01-24T06:47:38.145Z,29.57
2019-01-24T06:48:42.414Z,28.70
2019-01-24T06:49:46.695Z,28.90
2019-01-24T06:50:50.985Z,28.30
2019-01-24T06:51:55.270Z,29.72
2019-01-24T06:52:59.517Z,27.22
2019-01-24T06:54:03.879Z,29.15
2019-01-24T06:55:09.755Z,27.48
2019-01-24T06:56:14.026Z,27.93
2019-01-24T06:57:18.275Z,29.95
2019-01-24T06:58:22.562Z,29.80
2019-01-24T06:59:26.852Z,29.23
2019-01-24T07:00:31.111Z,30.10
2019-01-24T07:01:35.375Z,31.05
2019-01-24T07:02:40.020Z,29.67
2019-01-24T07:03:44.302Z,30.15
2019-01-24T07:04:48.610Z,30.23
2019-01-24T07:05:55.402Z,29.77
2019-01-24T07:06:58.904Z,28.47
2019-01-24T07:08:03.194Z,28.80
2019-01-24T07:09:08.739Z,28.50
2019-01-24T07:10:15.022Z,29.67
2019-01-24T07:11:19.381Z,29.57
2019-01-24T07:12:23.668Z,29.57
2019-01-24T07:13:27.922Z,28.52
2019-01-24T07:14:32.190Z,30.60
2019-01-24T07:15:36.446Z,29.87
2019-01-24T07:16:40.749Z,30.85
2019-01-24T07:17:45.289Z,29.00
2019-01-24T07:18:49.526Z,30.12
2019-01-24T07:19:53.782Z,29.57
2019-01-24T07:20:58.650Z,27.77
2019-01-24T07:22:02.974Z,28.50
2019-01-24T07:23:07.613Z,28.50
2019-01-24T07:24:11.870Z,29.90
2019-01-24T07:25:18.698Z,30.05
2019-01-24T07:26:23.130Z,29.35
2019-01-24T07:27:27.504Z,29.07
2019-01-24T07:28:32.021Z,30.37
2019-01-24T07:29:36.301Z,29.82
2019-01-24T07:30:40.605Z,30.32
2019-01-24T07:31:44.907Z,28.15
2019-01-24T07:32:49.323Z,29.40
2019-01-24T07:33:53.562Z,30.32
2019-01-24T07:34:57.898Z,29.63
2019-01-24T07:36:02.521Z,28.92
2019-01-24T07:37:06.921Z,31.10
2019-01-24T07:38:11.154Z,28.52
2019-01-24T07:39:15.526Z,28.73
2019-01-24T07:40:19.913Z,30.27
2019-01-24T07:41:24.206Z,29.42
2019-01-24T07:42:28.477Z,30.23
2019-01-24T07:43:32.730Z,29.18
2019-01-24T07:44:36.978Z,28.02
2019-01-24T07:45:41.790Z,28.20
2019-01-24T07:46:46.050Z,30.65
2019-01-24T07:47:50.316Z,29.92
2019-01-24T07:48:54.587Z,29.02
2019-01-24T07:49:58.858Z,29.10
2019-01-24T07:51:03.225Z,30.12
2019-01-24T07:52:08.334Z,30.02
2019-01-24T07:53:12.749Z,29.65
2019-01-24T07:54:17.015Z,30.25
2019-01-24T07:55:21.326Z,29.85
2019-01-24T07:56:25.591Z,29.82
2019-01-24T07:57:29.862Z,30.08
2019-01-24T07:58:34.145Z,29.82
2019-01-24T07:59:38.409Z,30.55
2019-01-24T08:00:42.745Z,30.82
2019-01-24T08:01:47.011Z,31.05
2019-01-24T08:02:51.534Z,31.20
2019-01-24T08:03:55.794Z,30.30
2019-01-24T08:05:00.085Z,30.75
2019-01-24T08:06:09.006Z,30.70
2019-01-24T08:07:10.470Z,30.25
2019-01-24T08:08:14.733Z,33.02
2019-01-24T08:09:18.995Z,31.27
2019-01-24T08:10:23.559Z,31.55
2019-01-24T08:11:27.810Z,29.90
2019-01-24T08:12:32.070Z,30.65
2019-01-24T08:13:36.326Z,30.72
2019-01-24T08:14:40.586Z,30.00
2019-01-24T08:15:45.781Z,30.12
2019-01-24T08:16:50.285Z,31.62
2019-01-24T08:17:54.546Z,32.08
2019-01-24T08:18:58.817Z,31.42
2019-01-24T08:20:03.155Z,32.45
2019-01-24T08:21:07.492Z,30.35
2019-01-24T08:22:11.877Z,30.97
2019-01-24T08:23:16.186Z,32.58
2019-01-24T08:24:20.463Z,31.87
2019-01-24T08:25:24.797Z,32.15
2019-01-24T08:26:29.060Z,32.00
2019-01-24T08:27:33.330Z,31.85
2019-01-24T08:28:37.590Z,31.23
2019-01-24T08:29:41.846Z,30.40
2019-01-24T08:30:46.098Z,31.07
2019-01-24T08:31:50.362Z,32.15
2019-01-24T08:32:54.778Z,31.25
2019-01-24T08:33:59.043Z,30.40
2019-01-24T08:35:03.374Z,32.38
2019-01-24T08:36:07.706Z,30.30
2019-01-24T08:37:12.001Z,32.00
2019-01-24T08:38:16.256Z,31.95
2019-01-24T08:39:20.517Z,31.90
2019-01-24T08:40:25.077Z,33.20
2019-01-24T08:41:29.338Z,32.08
2019-01-24T08:42:33.618Z,29.75
2019-01-24T08:43:37.882Z,32.40
2019-01-24T08:44:42.149Z,30.43
2019-01-24T08:45:46.488Z,32.80
2019-01-24T08:46:50.750Z,32.88
2019-01-24T08:47:55.096Z,32.73
2019-01-24T08:48:59.362Z,32.80
2019-01-24T08:50:04.486Z,30.30
2019-01-24T08:51:08.746Z,34.18
2019-01-24T08:52:13.012Z,32.23
2019-01-24T08:53:17.278Z,30.92
2019-01-24T08:54:21.547Z,33.73
2019-01-24T08:55:28.418Z,32.30
2019-01-24T08:56:32.676Z,31.68
2019-01-24T08:57:36.935Z,33.45
2019-01-24T08:58:41.195Z,32.58
2019-01-24T08:59:45.546Z,31.27
2019-01-24T09:00:49.826Z,32.58
2019-01-24T09:01:54.088Z,32.65
2019-01-24T09:02:58.418Z,32.53
2019-01-24T09:04:02.982Z,31.42
2019-01-24T09:05:07.528Z,32.53
2019-01-24T09:06:11.874Z,32.13
2019-01-24T09:07:16.134Z,32.00
2019-01-24T09:08:20.395Z,31.40
2019-01-24T09:09:24.658Z,31.60
2019-01-24T09:10:31.244Z,32.55
2019-01-24T09:11:35.490Z,30.45
2019-01-24T09:12:39.759Z,30.17
2019-01-24T09:13:44.086Z,28.45
2019-01-24T09:14:48.366Z,31.27
2019-01-24T09:15:52.659Z,30.72
2019-01-24T09:16:56.913Z,29.27
2019-01-24T09:18:01.246Z,29.18
2019-01-24T09:19:05.680Z,28.57
2019-01-24T09:20:11.992Z,29.10
2019-01-24T09:21:16.262Z,29.45
2019-01-24T09:22:20.535Z,27.25
2019-01-24T09:23:24.778Z,29.23
2019-01-24T09:24:29.034Z,29.15
2019-01-24T09:25:33.306Z,26.93
2019-01-24T09:26:37.654Z,27.55
2019-01-24T09:27:42.083Z,27.77
2019-01-24T09:28:46.334Z,28.05
2019-01-24T09:29:50.598Z,27.35
2019-01-24T09:30:54.865Z,26.25
2019-01-24T09:31:59.126Z,27.85
2019-01-24T09:33:03.467Z,26.57
2019-01-24T09:34:07.726Z,27.93
2019-01-24T09:35:12.161Z,27.45
2019-01-24T09:36:16.490Z,28.75
2019-01-24T09:37:20.830Z,28.23
2019-01-24T09:38:25.098Z,28.15
2019-01-24T09:39:29.364Z,27.42
2019-01-24T09:40:33.638Z,27.42
2019-01-24T09:41:37.911Z,27.95
2019-01-24T09:42:42.178Z,28.27
2019-01-24T09:43:46.433Z,29.52
2019-01-24T09:44:50.710Z,28.95
2019-01-24T09:45:54.979Z,28.45
2019-01-24T09:46:59.226Z,28.40
2019-01-24T09:48:03.817Z,28.60
2019-01-24T09:49:08.074Z,29.12
2019-01-24T09:50:15.022Z,28.95
2019-01-24T09:51:19.286Z,28.95
2019-01-24T09:52:23.712Z,27.05
2019-01-24T09:53:27.962Z,28.67
2019-01-24T09:54:32.222Z,27.32
2019-01-24T09:55:36.591Z,28.32
2019-01-24T09:56:40.926Z,26.48
2019-01-24T09:57:46.926Z,27.07
2019-01-24T09:58:51.270Z,27.20
2019-01-24T09:59:55.534Z,27.22
2019-01-24T10:00:59.826Z,29.35
2019-01-24T10:02:04.334Z,28.87
2019-01-24T10:03:08.747Z,28.67
2019-01-24T10:04:13.002Z,28.90
2019-01-24T10:05:17.806Z,29.42
2019-01-24T10:06:22.082Z,30.23
2019-01-24T10:07:26.351Z,28.27
2019-01-24T10:08:30.622Z,29.75
2019-01-24T10:09:34.888Z,29.48
2019-01-24T10:10:39.134Z,28.30
2019-01-24T10:11:43.406Z,27.80
2019-01-24T10:12:47.660Z,29.98
2019-01-24T10:13:51.935Z,28.73
2019-01-24T10:14:56.263Z,30.37
2019-01-24T10:16:00.518Z,29.92
2019-01-24T10:17:04.950Z,31.68
2019-01-24T10:18:09.270Z,30.50
2019-01-24T10:19:13.610Z,31.00
2019-01-24T10:20:19.286Z,30.12
2019-01-24T10:21:23.622Z,29.80
2019-01-24T10:22:27.891Z,29.90
2019-01-24T10:23:32.149Z,31.27
2019-01-24T10:24:36.422Z,29.12
2019-01-24T10:25:40.853Z,30.15
2019-01-24T10:26:45.178Z,29.98
2019-01-24T10:27:49.570Z,30.20
2019-01-24T10:28:53.838Z,31.30
2019-01-24T10:29:58.096Z,31.05
2019-01-24T10:31:02.361Z,31.87
2019-01-24T10:32:06.702Z,31.33
2019-01-24T10:33:11.048Z,30.90
2019-01-24T10:34:15.466Z,31.42
2019-01-24T10:35:19.932Z,30.90
2019-01-24T10:36:24.229Z,31.12
2019-01-24T10:37:28.499Z,31.02
2019-01-24T10:38:32.786Z,29.37
2019-01-24T10:39:37.068Z,31.42
2019-01-24T10:40:41.389Z,31.12
2019-01-24T10:41:45.755Z,33.40
2019-01-24T10:42:50.183Z,31.17
2019-01-24T10:43:54.515Z,30.77
2019-01-24T10:44:58.765Z,29.95
2019-01-24T10:46:03.181Z,30.45
2019-01-24T10:47:07.438Z,32.63
2019-01-24T10:48:11.707Z,32.35
2019-01-24T10:49:15.954Z,31.50
2019-01-24T10:50:21.566Z,30.05
2019-01-24T10:51:25.819Z,31.23
2019-01-24T10:52:30.066Z,29.82
2019-01-24T10:53:34.343Z,29.30
2019-01-24T10:54:38.599Z,29.57
2019-01-24T10:55:42.941Z,30.77
2019-01-24T10:56:47.169Z,31.40
2019-01-24T10:57:52.094Z,30.17
2019-01-24T10:58:56.433Z,30.70
2019-01-24T11:00:00.769Z,31.20
2019-01-24T11:01:05.575Z,30.45
2019-01-24T11:02:10.502Z,30.17
2019-01-24T11:03:19.360Z,30.25
2019-01-24T11:04:23.611Z,31.30
2019-01-24T11:05:27.870Z,30.68
2019-01-24T11:06:32.121Z,29.60
2019-01-24T11:07:36.397Z,29.75
2019-01-24T11:08:40.749Z,30.37
2019-01-24T11:09:45.020Z,32.88
2019-01-24T11:10:49.274Z,30.57
2019-01-24T11:11:54.001Z,31.93
2019-01-24T11:12:58.361Z,31.07
2019-01-24T11:14:02.643Z,30.30
2019-01-24T11:15:09.558Z,31.40
2019-01-24T11:16:13.838Z,29.48
2019-01-24T11:17:18.095Z,31.87
2019-01-24T11:18:22.347Z,32.13
2019-01-24T11:19:26.626Z,30.48
2019-01-24T11:20:30.941Z,31.57
2019-01-24T11:21:35.209Z,31.02
2019-01-24T11:22:39.554Z,32.13
2019-01-24T11:23:43.908Z,32.03
2019-01-24T11:24:48.179Z,30.23
2019-01-24T11:25:52.528Z,31.35
2019-01-24T11:26:56.794Z,31.73
2019-01-24T11:28:01.121Z,32.42
2019-01-24T11:29:05.389Z,31.93
2019-01-24T11:30:11.521Z,31.40
2019-01-24T11:31:15.802Z,31.70
2019-01-24T11:32:20.349Z,31.90
2019-01-24T11:33:24.637Z,31.23
2019-01-24T11:34:28.938Z,31.50
2019-01-24T11:35:34.418Z,30.82
2019-01-24T11:36:38.762Z,32.33
2019-01-24T11:37:43.183Z,30.88
2019-01-24T11:38:47.431Z,32.75
2019-01-24T11:39:51.715Z,31.20
2019-01-24T11:40:56.005Z,32.73
2019-01-24T11:42:00.287Z,31.37
2019-01-24T11:43:05.172Z,30.43
2019-01-24T11:44:09.960Z,31.75
2019-01-24T11:45:15.012Z,31.70
2019-01-24T11:46:19.277Z,31.50
2019-01-24T11:47:24.520Z,32.20
2019-01-24T11:48:28.874Z,31.65
2019-01-24T11:49:33.175Z,31.23
2019-01-24T11:50:37.510Z,31.17
2019-01-24T11:51:41.762Z,32.60
2019-01-24T11:52:46.401Z,31.45
2019-01-24T11:53:53.200Z,32.45
2019-01-24T11:54:56.736Z,31.55
2019-01-24T11:56:00.993Z,30.80
2019-01-24T11:57:05.349Z,32.38
2019-01-24T11:58:09.743Z,31.52
2019-01-24T11:59:14.049Z,32.65
2019-01-24T12:00:24.533Z,32.60
2019-01-24T12:01:28.803Z,33.25
2019-01-24T12:02:39.550Z,33.60
2019-01-24T12:03:39.310Z,31.73
2019-01-24T12:04:43.606Z,33.85
2019-01-24T12:05:48.014Z,33.67
2019-01-24T12:06:52.262Z,33.25
2019-01-24T12:07:56.774Z,33.00
2019-01-24T12:09:01.077Z,32.38
2019-01-24T12:10:07.369Z,33.23
2019-01-24T12:11:11.633Z,32.70
2019-01-24T12:12:15.881Z,32.93
2019-01-24T12:13:20.212Z,31.17
2019-01-24T12:14:24.469Z,32.63
2019-01-24T12:15:28.851Z,32.95
2019-01-24T12:16:33.182Z,31.73
2019-01-24T12:17:37.510Z,31.40
2019-01-24T12:18:41.820Z,32.10
2019-01-24T12:19:46.082Z,31.65
2019-01-24T12:20:50.418Z,31.48
2019-01-24T12:21:54.694Z,32.45
2019-01-24T12:22:59.026Z,31.75
2019-01-24T12:24:03.293Z,32.48
2019-01-24T12:25:08.063Z,30.20
2019-01-24T12:26:12.442Z,32.50
2019-01-24T12:27:16.690Z,31.77
2019-01-24T12:28:20.978Z,32.42
2019-01-24T12:29:25.265Z,33.28
2019-01-24T12:30:31.440Z,32.75
2019-01-24T12:31:35.716Z,33.67
2019-01-24T12:32:40.044Z,33.02
2019-01-24T12:33:44.312Z,30.68
2019-01-24T12:34:48.597Z,32.73
2019-01-24T12:35:52.963Z,32.63
2019-01-24T12:36:57.239Z,32.55
2019-01-24T12:38:01.611Z,32.42
2019-01-24T12:39:08.843Z,31.97
2019-01-24T12:40:13.380Z,33.25
2019-01-24T12:41:17.648Z,33.38
2019-01-24T12:42:21.902Z,30.65
2019-01-24T12:43:26.257Z,32.05
2019-01-24T12:44:30.579Z,30.90
2019-01-24T12:45:36.338Z,30.88
2019-01-24T12:46:40.605Z,31.45
2019-01-24T12:47:44.924Z,31.48
2019-01-24T12:48:49.236Z,31.57
2019-01-24T12:49:53.563Z,30.72
2019-01-24T12:50:57.841Z,28.65
2019-01-24T12:52:02.175Z,30.92
2019-01-24T12:53:07.612Z,29.35
2019-01-24T12:54:12.038Z,30.35
2019-01-24T12:55:16.626Z,31.57
2019-01-24T12:56:20.925Z,31.90
2019-01-24T12:57:25.290Z,30.17
2019-01-24T12:58:29.570Z,31.68
2019-01-24T12:59:33.835Z,30.65
2019-01-24T13:00:39.265Z,28.92
2019-01-24T13:01:43.587Z,31.25
2019-01-24T13:02:47.840Z,32.13
2019-01-24T13:03:52.302Z,31.30
2019-01-24T13:04:56.579Z,32.65
2019-01-24T13:06:00.910Z,32.73
2019-01-24T13:07:05.267Z,31.73
2019-01-24T13:08:09.618Z,30.45
2019-01-24T13:09:13.876Z,32.45
2019-01-24T13:10:20.520Z,31.75
2019-01-24T13:11:24.793Z,30.97
2019-01-24T13:12:29.052Z,31.05
2019-01-24T13:13:33.345Z,32.80
2019-01-24T13:14:37.618Z,32.90
2019-01-24T13:15:42.052Z,32.10
2019-01-24T13:16:46.341Z,33.13
2019-01-24T13:17:50.597Z,31.90
2019-01-24T13:18:54.891Z,31.02
2019-01-24T13:19:59.182Z,33.70
2019-01-24T13:21:03.445Z,30.72
2019-01-24T13:22:07.819Z,31.73
2019-01-24T13:23:12.162Z,31.57
2019-01-24T13:24:16.458Z,31.80
2019-01-24T13:25:25.626Z,30.60
2019-01-24T13:26:29.887Z,30.75
2019-01-24T13:27:34.195Z,30.85
2019-01-24T13:28:38.450Z,29.77
2019-01-24T13:29:42.710Z,30.40
2019-01-24T13:30:46.965Z,30.52
2019-01-24T13:31:51.250Z,31.15
2019-01-24T13:32:55.686Z,31.33
2019-01-24T13:33:59.937Z,30.40
2019-01-24T13:35:04.479Z,31.23
2019-01-24T13:36:08.926Z,32.13
2019-01-24T13:37:13.236Z,31.87
2019-01-24T13:38:17.553Z,31.82
2019-01-24T13:39:21.847Z,32.45
2019-01-24T13:40:30.518Z,30.62
2019-01-24T13:41:34.877Z,31.20
2019-01-24T13:42:39.226Z,33.95
2019-01-24T13:43:43.486Z,31.12
2019-01-24T13:44:47.741Z,32.13
2019-01-24T13:45:52.018Z,27.95
2019-01-24T13:46:56.334Z,30.60
2019-01-24T13:48:00.714Z,30.17
2019-01-24T13:49:05.087Z,30.68
2019-01-24T13:50:11.779Z,31.25